createdAt,value
2022-09-12T00:00:52.153Z,17.60
2022-09-12T00:03:19.113Z,17.60
2022-09-12T00:05:47.791Z,17.60
2022-09-12T00:08:15.559Z,17.60
2022-09-12T00:10:44.230Z,17.80
2022-09-12T00:13:11.846Z,17.70
2022-09-12T00:15:44.363Z,17.70
2022-09-12T00:18:16.917Z,17.70
2022-09-12T00:20:47.829Z,17.70
2022-09-12T00:23:15.063Z,17.60
2022-09-12T00:25:47.594Z,17.70
2022-09-12T00:28:17.209Z,17.70
2022-09-12T00:30:47.991Z,17.70
2022-09-12T00:33:17.733Z,17.60
2022-09-12T00:35:52.756Z,17.60
2022-09-12T00:38:20.587Z,17.60
2022-09-12T00:40:48.823Z,17.50
2022-09-12T00:43:46.006Z,17.50
2022-09-12T00:46:43.217Z,17.50
2022-09-12T00:49:33.530Z,17.50
2022-09-12T00:52:12.362Z,17.50
2022-09-12T00:55:00.190Z,17.50
2022-09-12T00:57:35.800Z,17.50
2022-09-12T01:00:16.495Z,17.50
2022-09-12T01:02:56.318Z,17.40
2022-09-12T01:05:26.647Z,17.40
2022-09-12T01:07:56.294Z,17.40
2022-09-12T01:10:24.768Z,17.40
2022-09-12T01:12:51.884Z,17.50
2022-09-12T01:15:19.018Z,17.40
2022-09-12T01:18:09.204Z,17.30
2022-09-12T01:21:01.250Z,17.30
2022-09-12T01:23:48.882Z,17.30
2022-09-12T01:26:50.268Z,17.20
2022-09-12T01:30:10.851Z,17.20
2022-09-12T01:33:05.205Z,17.20
2022-09-12T01:36:29.557Z,17.20
2022-09-12T01:39:53.356Z,17.20
2022-09-12T01:42:41.947Z,17.10
2022-09-12T01:45:38.382Z,17.10
2022-09-12T01:48:26.445Z,17.10
2022-09-12T01:51:07.496Z,17.10
2022-09-12T01:53:42.826Z,17.00
2022-09-12T01:56:32.923Z,17.00
2022-09-12T01:59:16.924Z,17.00
2022-09-12T02:01:56.057Z,17.00
2022-09-12T02:04:37.602Z,16.90
2022-09-12T02:07:44.960Z,16.90
2022-09-12T02:10:20.326Z,16.90
2022-09-12T02:13:07.401Z,16.80
2022-09-12T02:15:44.482Z,16.80
2022-09-12T02:18:18.265Z,16.80
2022-09-12T02:20:49.403Z,16.70
2022-09-12T02:23:28.422Z,16.70
2022-09-12T02:26:03.628Z,16.70
2022-09-12T02:28:39.355Z,16.60
2022-09-12T02:31:44.893Z,16.60
2022-09-12T02:34:29.168Z,16.60
2022-09-12T02:37:25.910Z,16.60
2022-09-12T02:39:56.843Z,16.60
2022-09-12T02:42:27.753Z,16.70
2022-09-12T02:44:57.445Z,16.50
2022-09-12T02:47:34.249Z,16.50
2022-09-12T02:50:01.953Z,16.50
2022-09-12T02:52:29.710Z,16.50
2022-09-12T02:54:58.996Z,16.40
2022-09-12T02:57:26.024Z,16.50
2022-09-12T03:00:00.237Z,16.50
2022-09-12T03:03:11.113Z,16.50
2022-09-12T03:06:00.383Z,16.40
2022-09-12T03:08:39.879Z,16.50
2022-09-12T03:11:34.225Z,16.40
2022-09-12T03:14:22.073Z,16.50
2022-09-12T03:17:13.746Z,16.30
2022-09-12T03:19:53.050Z,16.40
2022-09-12T03:22:48.159Z,16.50
2022-09-12T03:25:47.364Z,16.40
2022-09-12T03:28:20.590Z,16.40
2022-09-12T03:30:51.446Z,16.50
2022-09-12T03:33:22.421Z,16.50
2022-09-12T03:35:50.940Z,16.60
2022-09-12T03:38:19.223Z,16.50
2022-09-12T03:40:49.344Z,16.50
2022-09-12T03:43:18.310Z,16.50
2022-09-12T03:45:45.121Z,16.50
2022-09-12T03:48:12.190Z,16.50
2022-09-12T03:50:38.985Z,16.60
2022-09-12T03:53:05.828Z,16.50
2022-09-12T03:55:32.641Z,16.50
2022-09-12T03:57:59.397Z,16.60
2022-09-12T04:00:26.446Z,16.50
2022-09-12T04:02:57.372Z,16.50
2022-09-12T04:05:25.754Z,16.50
2022-09-12T04:07:52.975Z,16.80
2022-09-12T04:10:20.271Z,16.60
2022-09-12T04:12:50.474Z,16.50
2022-09-12T04:15:17.499Z,16.60
2022-09-12T04:17:44.582Z,16.50
2022-09-12T04:20:11.354Z,16.60
2022-09-12T04:22:38.114Z,16.60
2022-09-12T04:25:05.878Z,16.60
2022-09-12T04:27:33.130Z,16.60
2022-09-12T04:30:01.928Z,16.60
2022-09-12T04:32:31.331Z,16.60
2022-09-12T04:34:58.269Z,16.60
2022-09-12T04:37:25.119Z,16.60
2022-09-12T04:39:55.977Z,16.50
2022-09-12T04:42:22.979Z,16.40
2022-09-12T04:44:49.910Z,16.50
2022-09-12T04:47:16.947Z,16.30
2022-09-12T04:49:43.728Z,16.60
2022-09-12T04:52:10.499Z,16.30
2022-09-12T04:54:37.953Z,16.10
2022-09-12T04:57:04.895Z,16.20
2022-09-12T04:59:31.586Z,16.20
2022-09-12T05:01:58.665Z,16.10
2022-09-12T05:04:25.438Z,16.10
2022-09-12T05:06:52.260Z,16.10
2022-09-12T05:09:19.095Z,16.00
2022-09-12T05:12:03.683Z,16.00
2022-09-12T05:14:33.004Z,16.00
2022-09-12T05:17:01.719Z,15.90
2022-09-12T05:19:30.638Z,16.00
2022-09-12T05:21:58.931Z,15.90
2022-09-12T05:24:25.971Z,15.90
2022-09-12T05:26:52.959Z,15.90
2022-09-12T05:29:19.938Z,16.00
2022-09-12T05:31:52.312Z,16.00
2022-09-12T05:34:20.385Z,16.10
2022-09-12T05:36:47.166Z,16.20
2022-09-12T05:39:14.143Z,16.40
2022-09-12T05:41:40.990Z,16.30
2022-09-12T05:44:12.612Z,16.40
2022-09-12T05:46:43.672Z,16.40
2022-09-12T05:49:13.310Z,16.60
2022-09-12T05:51:44.266Z,16.80
2022-09-12T05:54:17.278Z,17.00
2022-09-12T05:56:45.369Z,16.90
2022-09-12T05:59:19.388Z,17.00
2022-09-12T06:01:48.377Z,17.10
2022-09-12T06:04:15.875Z,17.50
2022-09-12T06:06:45.424Z,17.30
2022-09-12T06:09:15.527Z,17.50
2022-09-12T06:11:43.775Z,17.60
2022-09-12T06:14:13.147Z,17.70
2022-09-12T06:16:40.544Z,17.80
2022-09-12T06:19:13.932Z,17.90
2022-09-12T06:21:40.809Z,18.00
2022-09-12T06:24:07.746Z,18.10
2022-09-12T06:26:35.058Z,18.30
2022-09-12T06:29:02.129Z,18.30
2022-09-12T06:31:33.298Z,18.50
2022-09-12T06:34:03.991Z,18.70
2022-09-12T06:36:36.618Z,18.80
2022-09-12T06:39:11.029Z,18.90
2022-09-12T06:41:42.987Z,19.10
2022-09-12T06:44:20.390Z,19.30
2022-09-12T06:46:47.374Z,19.50
2022-09-12T06:49:14.875Z,19.70
2022-09-12T06:51:42.571Z,19.90
2022-09-12T06:54:13.171Z,20.10
2022-09-12T06:56:40.531Z,20.20
2022-09-12T06:59:07.297Z,20.40
2022-09-12T07:01:34.369Z,20.40
2022-09-12T07:04:04.102Z,20.50
2022-09-12T07:06:40.655Z,20.60
2022-09-12T07:09:11.426Z,20.70
2022-09-12T07:11:41.437Z,20.80
2022-09-12T07:14:11.982Z,21.10
2022-09-12T07:16:38.783Z,21.50
2022-09-12T07:19:08.168Z,21.80
2022-09-12T07:21:41.722Z,22.30
2022-09-12T07:24:10.641Z,22.70
2022-09-12T07:26:39.671Z,23.20
2022-09-12T07:29:35.241Z,23.60
2022-09-12T07:31:53.619Z,24.00
2022-09-12T07:34:20.309Z,24.50
2022-09-12T07:36:47.025Z,24.80
2022-09-12T07:39:13.756Z,25.00
2022-09-12T07:41:40.549Z,25.30
2022-09-12T07:44:07.446Z,25.40
2022-09-12T07:46:35.321Z,25.60
2022-09-12T07:49:02.977Z,25.80
2022-09-12T07:51:31.631Z,26.00
2022-09-12T07:53:59.469Z,26.20
2022-09-12T07:56:31.240Z,26.30
2022-09-12T07:58:59.561Z,26.40
2022-09-12T08:01:27.065Z,26.50
2022-09-12T08:03:59.512Z,26.50
2022-09-12T08:06:32.061Z,26.60
2022-09-12T08:08:59.919Z,26.60
2022-09-12T08:11:29.778Z,26.60
2022-09-12T08:13:58.125Z,26.60
2022-09-12T08:16:30.197Z,26.50
2022-09-12T08:18:58.080Z,26.50
2022-09-12T08:21:31.476Z,26.40
2022-09-12T08:24:04.254Z,26.50
2022-09-12T08:26:35.974Z,26.60
2022-09-12T08:29:04.133Z,26.90
2022-09-12T08:31:36.590Z,27.30
2022-09-12T08:34:05.486Z,27.80
2022-09-12T08:36:32.978Z,28.30
2022-09-12T08:39:04.634Z,28.90
2022-09-12T08:41:40.631Z,29.40
2022-09-12T08:44:36.280Z,30.00
2022-09-12T08:47:24.074Z,30.50
2022-09-12T08:50:12.186Z,31.00
2022-09-12T08:52:58.810Z,31.40
2022-09-12T08:55:36.768Z,31.80
2022-09-12T08:58:23.018Z,32.10
2022-09-12T09:01:17.601Z,32.50
2022-09-12T09:04:18.871Z,32.70
2022-09-12T09:07:42.314Z,33.00
2022-09-12T09:10:49.372Z,33.30
2022-09-12T09:14:05.630Z,33.60
2022-09-12T09:16:41.053Z,33.80
2022-09-12T09:19:26.875Z,33.90
2022-09-12T09:22:02.141Z,34.00
2022-09-12T09:24:50.598Z,34.00
2022-09-12T09:27:40.367Z,34.10
2022-09-12T09:30:21.503Z,34.10
2022-09-12T09:32:56.294Z,34.10
2022-09-12T09:35:52.246Z,34.10
2022-09-12T09:38:42.066Z,34.10
2022-09-12T09:41:27.200Z,34.10
2022-09-12T09:43:54.060Z,34.20
2022-09-12T09:46:20.936Z,34.10
2022-09-12T09:48:51.073Z,34.10
2022-09-12T09:51:28.654Z,34.00
2022-09-12T09:54:03.517Z,33.90
2022-09-12T09:56:40.730Z,33.90
2022-09-12T09:59:17.409Z,33.80
2022-09-12T10:01:57.510Z,33.70
2022-09-12T10:04:41.673Z,33.70
2022-09-12T10:07:19.801Z,33.60
2022-09-12T10:10:18.793Z,33.50
2022-09-12T10:12:45.906Z,33.50
2022-09-12T10:15:23.197Z,33.30
2022-09-12T10:17:51.284Z,33.30
2022-09-12T10:20:39.033Z,33.40
2022-09-12T10:23:40.250Z,33.50
2022-09-12T10:26:18.289Z,33.60
2022-09-12T10:28:53.986Z,33.90
2022-09-12T10:31:39.014Z,34.10
2022-09-12T10:34:05.939Z,34.30
2022-09-12T10:36:39.547Z,34.50
2022-09-12T10:39:07.256Z,34.60
2022-09-12T10:41:41.803Z,34.70
2022-09-12T10:44:18.881Z,34.70
2022-09-12T10:46:46.178Z,34.70
2022-09-12T10:49:39.935Z,34.70
2022-09-12T10:52:23.069Z,34.80
2022-09-12T10:54:54.302Z,34.80
2022-09-12T10:57:41.806Z,34.80
2022-09-12T11:00:19.861Z,34.80
2022-09-12T11:03:24.713Z,34.90
2022-09-12T11:06:01.751Z,35.00
2022-09-12T11:09:10.026Z,35.00
2022-09-12T11:12:40.768Z,35.00
2022-09-12T11:15:13.319Z,35.00
2022-09-12T11:17:45.574Z,34.80
2022-09-12T11:21:02.354Z,34.60
2022-09-12T11:24:02.611Z,34.50
2022-09-12T11:27:00.006Z,34.30
2022-09-12T11:29:54.953Z,34.20
2022-09-12T11:32:33.633Z,34.00
2022-09-12T11:35:27.883Z,33.80
2022-09-12T11:38:38.765Z,33.70
2022-09-12T11:41:37.820Z,33.50
2022-09-12T11:44:24.414Z,33.30
2022-09-12T11:46:52.214Z,33.20
2022-09-12T11:49:40.135Z,33.00
2022-09-12T11:52:33.754Z,32.80
2022-09-12T11:55:15.200Z,32.70
2022-09-12T11:57:49.162Z,32.60
2022-09-12T12:00:29.984Z,32.50
2022-09-12T12:03:31.259Z,32.30
2022-09-12T12:06:05.807Z,32.20
2022-09-12T12:08:39.391Z,32.00
2022-09-12T12:11:08.462Z,31.90
2022-09-12T12:13:55.621Z,31.80
2022-09-12T12:16:29.829Z,31.60
2022-09-12T12:19:00.738Z,31.60
2022-09-12T12:21:47.263Z,31.50
2022-09-12T12:24:21.861Z,31.30
2022-09-12T12:27:00.422Z,31.20
2022-09-12T12:29:43.540Z,31.20
2022-09-12T12:32:10.740Z,31.10
2022-09-12T12:34:38.533Z,31.10
2022-09-12T12:37:20.871Z,31.10
2022-09-12T12:39:51.237Z,31.10
2022-09-12T12:42:35.830Z,31.10
2022-09-12T12:45:26.728Z,31.00
2022-09-12T12:48:09.626Z,30.90
2022-09-12T12:50:36.804Z,30.80
2022-09-12T12:53:22.977Z,30.70
2022-09-12T12:55:56.182Z,30.50
2022-09-12T12:58:40.527Z,30.40
2022-09-12T13:01:10.165Z,30.40
2022-09-12T13:03:41.693Z,30.30
2022-09-12T13:06:25.691Z,30.30
2022-09-12T13:09:32.497Z,30.30
2022-09-12T13:12:27.459Z,30.40
2022-09-12T13:14:59.340Z,30.40
2022-09-12T13:17:44.269Z,30.60
2022-09-12T13:20:29.760Z,30.60
2022-09-12T13:22:58.239Z,30.70
2022-09-12T13:25:29.900Z,30.80
2022-09-12T13:28:20.641Z,30.90
2022-09-12T13:30:57.803Z,30.90
2022-09-12T13:34:00.113Z,31.00
2022-09-12T13:37:08.798Z,31.00
2022-09-12T13:40:17.082Z,31.00
2022-09-12T13:43:02.461Z,30.90
2022-09-12T13:45:29.151Z,30.90
2022-09-12T13:48:02.478Z,30.90
2022-09-12T13:50:47.003Z,30.90
2022-09-12T13:53:19.420Z,30.90
2022-09-12T13:55:59.635Z,30.90
2022-09-12T13:58:30.257Z,30.90
2022-09-12T14:01:12.302Z,30.90
2022-09-12T14:04:13.184Z,30.80
2022-09-12T14:06:53.358Z,30.70
2022-09-12T14:09:34.599Z,30.70
2022-09-12T14:12:02.438Z,30.60
2022-09-12T14:14:42.337Z,30.60
2022-09-12T14:17:24.088Z,30.50
2022-09-12T14:19:52.733Z,30.40
2022-09-12T14:22:19.773Z,30.40
2022-09-12T14:24:50.437Z,30.40
2022-09-12T14:27:26.833Z,30.30
2022-09-12T14:30:02.650Z,30.30
2022-09-12T14:32:31.054Z,30.20
2022-09-12T14:35:19.725Z,30.20
2022-09-12T14:37:50.148Z,30.10
2022-09-12T14:40:21.513Z,30.00
2022-09-12T14:42:51.575Z,30.00
2022-09-12T14:45:30.097Z,30.00
2022-09-12T14:47:58.775Z,30.00
2022-09-12T14:50:29.646Z,30.00
2022-09-12T14:53:18.883Z,29.90
2022-09-12T14:55:53.706Z,30.00
2022-09-12T14:58:20.502Z,30.00
2022-09-12T15:01:05.507Z,30.00
2022-09-12T15:03:43.889Z,30.00
2022-09-12T15:06:39.510Z,30.10
2022-09-12T15:09:12.410Z,30.20
2022-09-12T15:11:39.551Z,30.20
2022-09-12T15:14:15.792Z,30.30
2022-09-12T15:16:45.060Z,30.40
2022-09-12T15:19:11.794Z,30.40
2022-09-12T15:21:38.573Z,30.50
2022-09-12T15:24:05.464Z,30.50
2022-09-12T15:26:32.211Z,30.50
2022-09-12T15:29:02.515Z,30.50
2022-09-12T15:31:31.812Z,30.60
2022-09-12T15:34:01.609Z,30.50
2022-09-12T15:36:29.297Z,30.50
2022-09-12T15:38:56.635Z,30.50
2022-09-12T15:41:37.964Z,30.50
2022-09-12T15:44:12.247Z,30.30
2022-09-12T15:46:39.366Z,30.50
2022-09-12T15:49:07.136Z,30.50
2022-09-12T15:51:34.165Z,30.40
2022-09-12T15:54:05.927Z,30.50
2022-09-12T15:56:32.830Z,30.40
2022-09-12T15:59:00.767Z,30.40
2022-09-12T16:01:28.840Z,30.30
2022-09-12T16:03:56.037Z,30.30
2022-09-12T16:06:23.394Z,30.30
2022-09-12T16:08:50.388Z,30.30
2022-09-12T16:11:27.148Z,30.20
2022-09-12T16:13:55.947Z,30.20
2022-09-12T16:16:22.761Z,30.20
2022-09-12T16:18:49.641Z,30.20
2022-09-12T16:21:16.569Z,30.10
2022-09-12T16:23:45.353Z,30.10
2022-09-12T16:26:12.075Z,30.10
2022-09-12T16:28:42.441Z,30.10
2022-09-12T16:31:13.458Z,30.10
2022-09-12T16:33:40.929Z,30.00
2022-09-12T16:36:14.885Z,30.00
2022-09-12T16:38:47.745Z,30.00
2022-09-12T16:41:16.905Z,30.00
2022-09-12T16:43:45.472Z,30.00
2022-09-12T16:46:16.576Z,30.00
2022-09-12T16:48:52.405Z,29.90
2022-09-12T16:51:30.226Z,29.90
2022-09-12T16:53:57.313Z,29.80
2022-09-12T16:56:24.826Z,29.80
2022-09-12T16:58:53.146Z,29.70
2022-09-12T17:01:26.221Z,29.60
2022-09-12T17:03:56.580Z,29.60
2022-09-12T17:06:25.170Z,29.50
2022-09-12T17:08:55.321Z,29.40
2022-09-12T17:11:26.930Z,29.30
2022-09-12T17:14:05.279Z,29.30
2022-09-12T17:16:36.715Z,29.20
2022-09-12T17:19:04.883Z,29.10
2022-09-12T17:21:31.812Z,28.90
2022-09-12T17:23:59.240Z,28.80
2022-09-12T17:26:26.713Z,28.70
2022-09-12T17:28:53.584Z,28.60
2022-09-12T17:31:20.703Z,28.50
2022-09-12T17:33:47.917Z,28.50
2022-09-12T17:36:17.798Z,28.30
2022-09-12T17:38:46.347Z,28.20
2022-09-12T17:41:23.530Z,28.10
2022-09-12T17:43:55.607Z,27.90
2022-09-12T17:46:31.043Z,27.80
2022-09-12T17:48:58.337Z,27.70
2022-09-12T17:51:30.578Z,27.60
2022-09-12T17:54:08.552Z,27.50
2022-09-12T17:56:37.252Z,27.30
2022-09-12T17:59:07.258Z,27.20
2022-09-12T18:01:53.006Z,27.00
2022-09-12T18:04:20.125Z,27.00
2022-09-12T18:06:48.849Z,26.90
2022-09-12T18:09:24.827Z,26.80
2022-09-12T18:11:53.000Z,26.60
2022-09-12T18:14:21.122Z,26.60
2022-09-12T18:16:48.216Z,26.40
2022-09-12T18:19:15.441Z,26.40
2022-09-12T18:21:42.211Z,26.20
2022-09-12T18:24:10.186Z,26.10
2022-09-12T18:26:37.173Z,26.00
2022-09-12T18:29:04.746Z,25.90
2022-09-12T18:31:31.799Z,25.80
2022-09-12T18:34:00.363Z,25.70
2022-09-12T18:36:28.486Z,25.60
2022-09-12T18:38:58.625Z,25.50
2022-09-12T18:41:26.261Z,25.30
2022-09-12T18:44:01.466Z,25.40
2022-09-12T18:46:30.599Z,25.30
2022-09-12T18:48:58.814Z,25.20
2022-09-12T18:51:34.169Z,25.10
2022-09-12T18:54:10.916Z,25.00
2022-09-12T18:56:40.866Z,24.90
2022-09-12T18:59:07.933Z,24.60
2022-09-12T19:01:37.915Z,24.70
2022-09-12T19:04:09.804Z,24.50
2022-09-12T19:06:54.536Z,24.60
2022-09-12T19:09:21.422Z,24.50
2022-09-12T19:11:49.941Z,24.50
2022-09-12T19:14:22.570Z,24.40
2022-09-12T19:16:53.404Z,24.30
2022-09-12T19:19:23.888Z,24.20
2022-09-12T19:21:50.729Z,24.10
2022-09-12T19:24:18.126Z,24.10
2022-09-12T19:26:45.660Z,24.00
2022-09-12T19:29:14.329Z,24.00
2022-09-12T19:31:41.717Z,23.80
2022-09-12T19:34:12.513Z,23.80
2022-09-12T19:36:45.262Z,23.80
2022-09-12T19:39:15.333Z,23.70
2022-09-12T19:41:42.665Z,23.60
2022-09-12T19:44:09.676Z,23.60
2022-09-12T19:46:36.643Z,23.50
2022-09-12T19:49:04.030Z,23.50
2022-09-12T19:51:31.221Z,23.40
2022-09-12T19:53:58.020Z,23.40
2022-09-12T19:56:24.832Z,23.30
2022-09-12T19:58:56.060Z,23.30
2022-09-12T20:01:30.889Z,23.30
2022-09-12T20:04:00.012Z,23.20
2022-09-12T20:06:28.010Z,23.20
2022-09-12T20:08:56.022Z,23.20
2022-09-12T20:11:25.484Z,23.10
2022-09-12T20:13:52.816Z,23.30
2022-09-12T20:16:29.084Z,23.00
2022-09-12T20:19:02.563Z,22.90
2022-09-12T20:21:32.616Z,22.80
2022-09-12T20:24:01.744Z,23.10
2022-09-12T20:26:28.610Z,22.80
2022-09-12T20:28:55.520Z,22.70
2022-09-12T20:31:22.468Z,22.80
2022-09-12T20:33:51.779Z,22.70
2022-09-12T20:36:21.470Z,22.70
2022-09-12T20:38:56.640Z,22.60
2022-09-12T20:41:25.607Z,22.60
2022-09-12T20:43:54.246Z,22.90
2022-09-12T20:46:22.715Z,22.50
2022-09-12T20:48:51.295Z,22.40
2022-09-12T20:51:20.405Z,22.40
2022-09-12T20:53:52.935Z,22.40
2022-09-12T20:56:19.976Z,22.30
2022-09-12T20:58:46.741Z,22.30
2022-09-12T21:01:15.996Z,22.20
2022-09-12T21:03:44.596Z,22.30
2022-09-12T21:06:14.415Z,22.20
2022-09-12T21:08:41.265Z,22.10
2022-09-12T21:11:08.780Z,22.10
2022-09-12T21:13:36.966Z,22.10
2022-09-12T21:16:14.061Z,22.10
2022-09-12T21:18:41.711Z,22.10
2022-09-12T21:21:11.664Z,22.10
2022-09-12T21:23:38.738Z,22.00
2022-09-12T21:26:08.926Z,21.90
2022-09-12T21:28:35.991Z,22.00
2022-09-12T21:31:03.355Z,21.90
2022-09-12T21:33:31.397Z,22.00
2022-09-12T21:36:04.252Z,22.00
2022-09-12T21:38:32.365Z,21.90
2022-09-12T21:41:11.924Z,21.80
2022-09-12T21:43:40.018Z,21.80
2022-09-12T21:46:09.707Z,21.80
2022-09-12T21:48:37.445Z,21.80
2022-09-12T21:51:04.963Z,21.70
2022-09-12T21:53:32.124Z,21.70
2022-09-12T21:56:05.334Z,22.00
2022-09-12T21:58:32.121Z,21.60
2022-09-12T22:01:00.420Z,21.60
2022-09-12T22:03:28.686Z,21.60
2022-09-12T22:06:05.166Z,21.50
2022-09-12T22:08:34.327Z,21.50
2022-09-12T22:11:09.164Z,21.50
2022-09-12T22:13:39.200Z,21.40
2022-09-12T22:16:09.472Z,21.40
2022-09-12T22:18:37.345Z,21.30
2022-09-12T22:21:08.849Z,21.70
2022-09-12T22:23:54.506Z,21.30
2022-09-12T22:26:21.618Z,21.30
2022-09-12T22:28:49.196Z,21.40
2022-09-12T22:31:17.335Z,21.20
2022-09-12T22:33:45.136Z,21.20
2022-09-12T22:36:12.656Z,21.10
2022-09-12T22:38:39.793Z,21.10
2022-09-12T22:41:10.545Z,21.10
2022-09-12T22:43:37.582Z,21.20
2022-09-12T22:46:09.459Z,21.30
2022-09-12T22:48:37.769Z,21.00
2022-09-12T22:51:05.258Z,21.00
2022-09-12T22:53:32.531Z,20.90
2022-09-12T22:55:59.258Z,20.90
2022-09-12T22:58:26.009Z,20.90
2022-09-12T23:00:52.867Z,20.80
2022-09-12T23:03:21.350Z,20.80
2022-09-12T23:05:48.763Z,20.70
2022-09-12T23:08:19.280Z,20.70
2022-09-12T23:10:46.673Z,20.70
2022-09-12T23:13:13.641Z,20.80
2022-09-12T23:15:40.966Z,20.70
2022-09-12T23:18:08.368Z,20.90
2022-09-12T23:20:35.075Z,20.60
2022-09-12T23:23:01.784Z,20.60
2022-09-12T23:25:28.569Z,20.60
2022-09-12T23:27:55.280Z,20.40
2022-09-12T23:30:22.130Z,20.50
2022-09-12T23:32:49.712Z,20.50
2022-09-12T23:35:20.423Z,20.40
2022-09-12T23:37:47.672Z,20.40
2022-09-12T23:40:14.796Z,20.30
2022-09-12T23:42:41.617Z,20.40
2022-09-12T23:45:09.949Z,20.30
2022-09-12T23:47:36.659Z,20.30
2022-09-12T23:50:03.782Z,20.30
2022-09-12T23:52:30.802Z,20.30
2022-09-12T23:54:57.630Z,20.30
2022-09-12T23:57:24.392Z,20.30
2022-09-12T23:59:51.281Z,20.20
